Time;durP1;ratioP1;P1;durP2;ratioP2;P2;SDS_P1;SDS_P2;PMS_P1;PMS_P2;Temp;Humidity;BMP_temperature;BMP_pressure;BME280_temperature;BME280_humidity;BME280_pressure;Samples;Min_cycle;Max_cycle;Signal;HPM_P1;HPM_P2
2023/08/01 00:00:10;;;;;;;5.10;3.63;;;19.80;74.10;;;;;;5017717;28;20492;-77
2023/08/01 00:02:39;;;;;;;5.10;3.63;;;19.70;74.70;;;;;;5034964;28;20456;-77
2023/08/01 00:05:06;;;;;;;5.90;3.40;;;19.70;74.50;;;;;;5030539;28;20420;-79
2023/08/01 00:07:33;;;;;;;4.20;3.80;;;19.70;74.70;;;;;;5033744;28;20438;-78
2023/08/01 00:10:04;;;;;;;3.73;3.43;;;19.70;75.00;;;;;;5002682;28;20452;-79
2023/08/01 00:12:31;;;;;;;5.30;4.50;;;19.60;74.90;;;;;;5035374;28;20537;-82
2023/08/01 00:14:58;;;;;;;3.53;3.20;;;19.60;75.20;;;;;;5036795;28;20670;-79
2023/08/01 00:17:25;;;;;;;4.63;3.73;;;19.60;74.80;;;;;;5021869;28;20429;-78
2023/08/01 00:19:54;;;;;;;4.10;3.63;;;19.60;75.40;;;;;;5035179;28;20871;-78
2023/08/01 00:22:21;;;;;;;4.00;3.60;;;19.50;74.50;;;;;;5036069;28;20446;-78
2023/08/01 00:24:49;;;;;;;4.37;3.50;;;19.60;75.10;;;;;;5035332;28;20473;-78
2023/08/01 00:27:16;;;;;;;3.43;3.13;;;19.50;75.30;;;;;;5029373;28;20443;-77
2023/08/01 00:29:43;;;;;;;3.83;3.40;;;19.50;75.10;;;;;;5034656;28;20565;-78
2023/08/01 00:32:10;;;;;;;3.93;3.23;;;19.40;75.50;;;;;;5013477;28;20466;-79
2023/08/01 00:34:37;;;;;;;8.30;3.70;;;19.40;75.10;;;;;;5017334;28;20439;-78
2023/08/01 00:37:05;;;;;;;7.37;3.43;;;19.40;75.40;;;;;;5031225;28;20483;-79
2023/08/01 00:39:31;;;;;;;4.63;3.80;;;19.40;75.50;;;;;;5031998;28;20445;-79
2023/08/01 00:41:59;;;;;;;3.90;3.40;;;19.30;76.00;;;;;;5035511;28;20510;-79
2023/08/01 00:44:26;;;;;;;5.80;3.90;;;19.30;75.70;;;;;;5034873;28;20746;-80
2023/08/01 00:46:53;;;;;;;5.63;3.10;;;19.30;75.50;;;;;;5039474;28;20491;-77
2023/08/01 00:49:20;;;;;;;3.77;3.47;;;19.20;75.80;;;;;;5036355;28;20511;-77
2023/08/01 00:51:47;;;;;;;3.83;3.43;;;19.30;75.40;;;;;;5036125;28;20439;-77
2023/08/01 00:54:15;;;;;;;4.37;3.40;;;19.30;75.70;;;;;;5033154;28;20432;-81
2023/08/01 00:56:42;;;;;;;5.60;3.77;;;19.30;75.80;;;;;;5040401;28;20486;-77
2023/08/01 00:59:10;;;;;;;5.20;3.77;;;19.20;76.10;;;;;;5035780;28;20556;-78
2023/08/01 01:01:36;;;;;;;3.70;3.23;;;19.20;75.70;;;;;;5034841;28;20513;-80
2023/08/01 01:04:04;;;;;;;5.30;3.43;;;19.20;76.00;;;;;;5036977;28;20504;-78
2023/08/01 01:06:46;;;;;;;3.97;3.40;;;19.10;77.10;;;;;;5036317;28;20450;-79
2023/08/01 01:09:18;;;;;;;3.90;3.43;;;19.10;76.20;;;;;;5035533;28;20502;-80
2023/08/01 01:11:46;;;;;;;3.97;3.53;;;19.10;76.50;;;;;;5035117;28;20450;-75
2023/08/01 01:14:13;;;;;;;3.63;3.07;;;19.10;76.50;;;;;;5028580;28;20527;-76
2023/08/01 01:16:40;;;;;;;5.00;3.73;;;19.00;76.70;;;;;;5033985;28;20614;-78
2023/08/01 01:19:09;;;;;;;4.40;3.80;;;19.00;77.30;;;;;;5042397;28;20752;-77
2023/08/01 01:21:38;;;;;;;3.73;3.43;;;19.00;77.70;;;;;;5036091;28;20450;-79
2023/08/01 01:24:08;;;;;;;3.40;3.13;;;18.80;77.70;;;;;;5036305;28;20449;-82
2023/08/01 01:26:36;;;;;;;4.40;3.57;;;18.70;78.00;;;;;;5036255;28;20428;-80
2023/08/01 01:29:05;;;;;;;6.37;3.80;;;18.70;78.50;;;;;;5040369;28;20462;-78
2023/08/01 01:31:34;;;;;;;5.40;4.17;;;18.60;78.50;;;;;;5036243;28;20726;-79
2023/08/01 01:34:02;;;;;;;4.73;4.23;;;18.60;78.90;;;;;;5039230;28;20424;-79
2023/08/01 01:36:30;;;;;;;7.30;3.60;;;18.50;79.70;;;;;;5040189;28;20500;-79
2023/08/01 01:38:57;;;;;;;7.73;4.00;;;18.40;79.60;;;;;;5035064;28;20444;-78
2023/08/01 01:41:24;;;;;;;6.87;3.40;;;18.40;80.00;;;;;;5042845;28;20495;-80
2023/08/01 01:43:51;;;;;;;3.93;3.47;;;18.40;80.00;;;;;;5039262;28;20472;-75
2023/08/01 01:46:18;;;;;;;4.37;3.97;;;18.40;80.10;;;;;;5025091;28;20506;-78
2023/08/01 01:48:45;;;;;;;4.10;3.70;;;18.40;80.10;;;;;;5040424;28;20459;-78
2023/08/01 01:51:13;;;;;;;5.47;3.63;;;18.30;80.20;;;;;;5044289;28;21126;-79
2023/08/01 01:53:40;;;;;;;4.20;3.90;;;18.40;80.80;;;;;;5030678;28;20450;-77
2023/08/01 01:56:07;;;;;;;7.17;3.80;;;18.20;80.80;;;;;;5021141;28;20780;-78
2023/08/01 01:58:35;;;;;;;5.30;3.33;;;18.30;81.00;;;;;;5038468;28;20484;-79
2023/08/01 02:01:03;;;;;;;5.00;3.60;;;18.40;79.70;;;;;;5038425;28;20453;-77
2023/08/01 02:03:30;;;;;;;4.43;3.10;;;18.40;80.00;;;;;;5034392;28;20424;-79
2023/08/01 02:05:56;;;;;;;3.90;3.60;;;18.40;80.00;;;;;;5030262;28;20483;-79
2023/08/01 02:08:24;;;;;;;4.60;3.47;;;18.40;80.00;;;;;;5042192;28;20434;-78
2023/08/01 02:10:51;;;;;;;4.80;3.40;;;18.40;79.90;;;;;;5038637;28;20522;-77
2023/08/01 02:13:18;;;;;;;11.43;3.30;;;18.40;80.10;;;;;;5041874;28;20659;-78
2023/08/01 02:15:45;;;;;;;3.63;3.33;;;18.40;80.50;;;;;;5047626;28;20431;-76
2023/08/01 02:18:12;;;;;;;3.33;3.03;;;18.40;80.30;;;;;;5037513;28;20511;-77
2023/08/01 02:20:39;;;;;;;5.17;3.50;;;18.50;79.80;;;;;;5033856;28;20476;-78
2023/08/01 02:23:06;;;;;;;3.30;3.10;;;18.40;80.10;;;;;;5037316;28;20438;-81
2023/08/01 02:25:41;;;;;;;4.30;3.30;;;18.50;80.60;;;;;;5040801;28;20471;-79
2023/08/01 02:28:08;;;;;;;4.33;3.73;;;18.60;80.00;;;;;;5016678;28;20521;-77
2023/08/01 02:30:36;;;;;;;5.60;3.90;;;18.50;80.10;;;;;;5042007;28;20992;-78
2023/08/01 02:33:04;;;;;;;3.63;3.33;;;18.50;80.60;;;;;;5030055;28;20438;-78
2023/08/01 02:35:31;;;;;;;4.10;3.37;;;18.50;81.40;;;;;;5024023;28;20449;-78
2023/08/01 02:38:00;;;;;;;3.57;3.27;;;18.40;82.40;;;;;;5037496;28;20417;-78
2023/08/01 02:40:27;;;;;;;3.60;3.30;;;18.50;83.00;;;;;;5037086;28;20452;-77
2023/08/01 02:42:54;;;;;;;5.60;3.50;;;18.50;83.10;;;;;;5037114;28;20765;-78
2023/08/01 02:45:20;;;;;;;4.93;3.30;;;18.30;83.40;;;;;;5037347;28;20449;-78
2023/08/01 02:47:47;;;;;;;3.53;3.23;;;18.40;84.90;;;;;;5036406;28;20459;-78
2023/08/01 02:50:15;;;;;;;6.83;3.90;;;18.40;85.00;;;;;;5043149;28;20481;-78
2023/08/01 02:52:42;;;;;;;4.50;3.53;;;18.30;85.40;;;;;;5045198;28;20819;-77
2023/08/01 02:55:09;;;;;;;5.20;3.87;;;18.30;86.80;;;;;;5040092;28;20405;-79
2023/08/01 02:57:36;;;;;;;3.67;3.37;;;18.10;87.70;;;;;;5037751;28;20477;-77
2023/08/01 03:00:05;;;;;;;8.43;4.23;;;18.10;87.00;;;;;;5020951;28;20493;-77
2023/08/01 03:02:32;;;;;;;4.30;3.90;;;18.10;87.60;;;;;;5041341;28;20477;-78
2023/08/01 03:05:00;;;;;;;4.90;3.70;;;18.20;86.60;;;;;;5041490;28;20517;-77
2023/08/01 03:07:26;;;;;;;3.20;3.00;;;18.10;87.00;;;;;;5023538;28;20959;-77
2023/08/01 03:09:55;;;;;;;3.73;3.43;;;18.10;87.10;;;;;;5027761;28;20480;-79
2023/08/01 03:12:22;;;;;;;6.07;3.70;;;18.00;86.10;;;;;;5039518;28;20549;-79
2023/08/01 03:14:49;;;;;;;3.93;3.53;;;18.10;85.80;;;;;;5038317;28;20433;-79
2023/08/01 03:17:17;;;;;;;7.23;3.70;;;18.10;86.00;;;;;;5040019;28;20912;-78
2023/08/01 03:19:43;;;;;;;4.03;3.63;;;18.10;85.80;;;;;;5036693;28;20456;-81
2023/08/01 03:22:11;;;;;;;4.17;3.43;;;18.10;86.10;;;;;;5036569;28;20461;-77
2023/08/01 03:24:38;;;;;;;5.03;4.10;;;18.10;85.30;;;;;;5037506;28;20446;-78
2023/08/01 03:27:05;;;;;;;4.10;3.40;;;18.30;85.30;;;;;;5020807;28;20700;-77
2023/08/01 03:29:32;;;;;;;5.90;3.63;;;18.10;84.20;;;;;;5052207;28;20473;-82
2023/08/01 03:32:01;;;;;;;4.93;3.80;;;18.10;84.20;;;;;;5039356;28;20438;-79
2023/08/01 03:34:28;;;;;;;6.50;3.93;;;18.10;84.20;;;;;;5036813;28;20636;-78
2023/08/01 03:36:56;;;;;;;4.07;3.47;;;18.20;83.00;;;;;;5036206;28;20452;-79
2023/08/01 03:39:22;;;;;;;4.57;3.10;;;18.20;83.40;;;;;;5037360;28;20449;-77
2023/08/01 03:41:50;;;;;;;4.80;3.43;;;18.30;83.70;;;;;;5036245;28;20445;-79
2023/08/01 03:44:17;;;;;;;4.37;3.60;;;18.20;83.00;;;;;;5037216;28;20450;-79
2023/08/01 03:46:44;;;;;;;6.17;4.00;;;18.30;83.50;;;;;;5035611;28;20434;-77
2023/08/01 03:49:11;;;;;;;5.10;3.77;;;18.30;83.30;;;;;;5035747;28;20479;-80
2023/08/01 03:51:38;;;;;;;6.00;5.13;;;18.30;83.30;;;;;;5034882;28;20469;-78
2023/08/01 03:54:06;;;;;;;4.20;3.70;;;18.40;83.80;;;;;;5035549;28;20519;-76
2023/08/01 03:56:42;;;;;;;4.73;4.13;;;18.40;83.50;;;;;;5034358;28;20420;-77
2023/08/01 03:59:13;;;;;;;5.90;4.20;;;18.40;84.50;;;;;;5027734;28;20549;-77
2023/08/01 04:01:41;;;;;;;4.13;3.73;;;18.40;85.00;;;;;;5037061;28;21020;-77
2023/08/01 04:04:09;;;;;;;6.47;3.80;;;18.40;85.00;;;;;;5042064;28;20450;-79
2023/08/01 04:06:36;;;;;;;5.77;4.43;;;18.40;85.50;;;;;;5037791;28;20476;-82
2023/08/01 04:09:03;;;;;;;3.90;3.50;;;18.40;85.30;;;;;;5041776;28;20451;-83
2023/08/01 04:11:38;;;;;;;8.20;4.27;;;18.40;86.10;;;;;;5025745;28;20401;-82
2023/08/01 04:14:05;;;;;;;4.50;3.63;;;18.40;85.20;;;;;;5017373;28;20408;-82
2023/08/01 04:16:33;;;;;;;4.10;3.47;;;18.50;85.10;;;;;;5039797;28;20569;-82
2023/08/01 04:19:01;;;;;;;10.00;4.37;;;18.60;84.00;;;;;;5040724;28;20416;-79
2023/08/01 04:21:28;;;;;;;4.97;4.30;;;18.60;84.40;;;;;;5023153;28;20753;-79
2023/08/01 04:23:55;;;;;;;5.70;4.17;;;18.50;83.40;;;;;;5022116;28;20517;-83
2023/08/01 04:26:24;;;;;;;6.53;4.37;;;18.50;85.40;;;;;;5040149;28;20470;-80
2023/08/01 04:28:52;;;;;;;5.00;4.60;;;18.50;86.70;;;;;;5006252;28;20841;-83
2023/08/01 04:31:20;;;;;;;5.43;4.73;;;18.40;86.70;;;;;;5040107;28;20483;-83
2023/08/01 04:33:48;;;;;;;6.50;4.50;;;18.40;87.80;;;;;;5039576;28;20488;-85
2023/08/01 04:36:15;;;;;;;4.30;3.90;;;18.50;88.90;;;;;;5039876;28;20434;-82
2023/08/01 04:38:44;;;;;;;5.70;5.00;;;18.40;89.20;;;;;;5040286;28;20496;-82
2023/08/01 04:41:10;;;;;;;8.27;5.33;;;18.30;90.70;;;;;;5025015;28;20449;-82
2023/08/01 04:43:38;;;;;;;6.90;5.17;;;18.20;90.40;;;;;;5043630;28;20412;-84
2023/08/01 04:46:04;;;;;;;8.83;5.43;;;18.10;91.00;;;;;;5039805;28;20427;-79
2023/08/01 04:48:32;;;;;;;6.30;4.93;;;18.10;91.00;;;;;;5045125;28;20444;-82
2023/08/01 04:51:00;;;;;;;6.43;5.03;;;18.20;90.40;;;;;;5038990;28;20492;-81
2023/08/01 04:53:28;;;;;;;6.10;4.80;;;18.30;90.00;;;;;;5025470;28;20440;-79
2023/08/01 04:55:55;;;;;;;5.37;4.90;;;18.20;90.30;;;;;;5017777;28;20472;-80
2023/08/01 04:58:24;;;;;;;5.87;5.37;;;18.10;90.60;;;;;;5019251;28;20470;-79
2023/08/01 05:00:52;;;;;;;4.50;4.00;;;17.90;91.20;;;;;;5036521;28;20496;-86
2023/08/01 05:03:19;;;;;;;5.03;4.63;;;18.00;91.30;;;;;;5012203;28;20424;-80
2023/08/01 05:05:46;;;;;;;6.03;5.20;;;17.90;91.30;;;;;;5019934;28;20497;-78
2023/08/01 05:08:14;;;;;;;11.07;4.93;;;17.80;91.20;;;;;;5038131;28;20464;-77
2023/08/01 05:10:40;;;;;;;5.73;5.20;;;17.90;91.80;;;;;;5042636;28;20497;-78
2023/08/01 05:13:08;;;;;;;6.10;5.30;;;18.00;92.00;;;;;;5039135;28;20462;-80
2023/08/01 05:15:35;;;;;;;4.80;4.40;;;18.00;92.10;;;;;;5042508;28;20448;-78
2023/08/01 05:18:02;;;;;;;6.63;4.83;;;18.10;91.90;;;;;;5036806;28;20654;-79
2023/08/01 05:20:30;;;;;;;9.43;5.30;;;18.10;92.30;;;;;;5024882;28;20641;-84
2023/08/01 05:22:58;;;;;;;7.23;5.80;;;17.90;92.70;;;;;;5020200;28;20485;-84
2023/08/01 05:25:25;;;;;;;8.57;5.93;;;17.90;92.70;;;;;;5022575;28;20460;-81
2023/08/01 05:27:53;;;;;;;7.60;5.60;;;17.90;93.10;;;;;;5039841;28;20500;-81
2023/08/01 05:30:21;;;;;;;8.93;5.67;;;17.80;93.50;;;;;;5040092;28;20477;-81
2023/08/01 05:32:48;;;;;;;6.87;5.53;;;17.70;93.70;;;;;;5041088;28;20445;-82
2023/08/01 05:35:15;;;;;;;6.43;5.60;;;17.70;93.80;;;;;;5040772;28;20811;-84
2023/08/01 05:37:43;;;;;;;5.67;5.10;;;17.70;93.80;;;;;;5041218;28;20420;-79
2023/08/01 05:40:10;;;;;;;7.10;5.53;;;17.60;94.40;;;;;;5030263;28;20484;-80
2023/08/01 05:42:37;;;;;;;7.33;5.77;;;17.60;94.60;;;;;;5040191;28;20525;-79
2023/08/01 05:45:05;;;;;;;6.20;5.30;;;17.80;94.60;;;;;;5032898;28;20590;-78
2023/08/01 05:47:31;;;;;;;5.80;5.30;;;17.70;94.50;;;;;;5039428;28;20476;-85
2023/08/01 05:49:59;;;;;;;8.13;6.00;;;17.80;93.80;;;;;;5036785;28;20498;-85
2023/08/01 05:52:26;;;;;;;5.60;5.00;;;17.80;94.70;;;;;;5040326;28;20452;-79
2023/08/01 05:54:53;;;;;;;7.83;6.73;;;17.70;94.50;;;;;;5035899;28;20573;-81
2023/08/01 05:57:20;;;;;;;8.27;5.83;;;17.70;94.60;;;;;;5014601;28;20503;-80
2023/08/01 05:59:47;;;;;;;6.67;5.53;;;17.70;94.90;;;;;;5038681;28;20716;-79
2023/08/01 06:02:14;;;;;;;7.97;5.73;;;17.60;94.80;;;;;;5038697;28;20522;-80
2023/08/01 06:04:41;;;;;;;6.70;4.90;;;17.60;95.10;;;;;;5022232;28;20441;-80
2023/08/01 06:07:08;;;;;;;6.17;5.67;;;17.60;94.90;;;;;;5023075;28;20828;-78
2023/08/01 06:09:35;;;;;;;7.13;6.53;;;17.60;95.40;;;;;;5040571;28;20477;-80
2023/08/01 06:12:03;;;;;;;6.40;5.20;;;17.70;95.20;;;;;;5040240;28;20442;-81
2023/08/01 06:14:30;;;;;;;11.63;6.60;;;17.80;95.00;;;;;;5021801;28;20454;-85
2023/08/01 06:16:57;;;;;;;6.80;5.60;;;17.80;95.30;;;;;;5020389;28;20773;-78
2023/08/01 06:19:24;;;;;;;8.30;6.30;;;17.90;95.20;;;;;;5021727;28;20472;-80
2023/08/01 06:21:54;;;;;;;5.47;4.63;;;17.80;95.20;;;;;;5038935;28;20540;-79
2023/08/01 06:24:20;;;;;;;8.43;5.37;;;17.80;94.40;;;;;;5047191;28;20440;-79
2023/08/01 06:26:48;;;;;;;8.93;5.93;;;17.60;95.40;;;;;;5042063;28;20477;-78
2023/08/01 06:29:14;;;;;;;9.33;5.90;;;17.90;95.30;;;;;;5037970;28;20450;-78
2023/08/01 06:31:42;;;;;;;5.43;4.93;;;17.90;95.00;;;;;;5040797;28;20494;-81
2023/08/01 06:34:09;;;;;;;5.53;4.53;;;17.90;94.70;;;;;;5039085;28;20748;-83
2023/08/01 06:36:36;;;;;;;8.00;5.10;;;18.00;94.40;;;;;;5022013;28;20474;-80
2023/08/01 06:39:03;;;;;;;6.07;4.90;;;18.00;94.50;;;;;;5034861;28;20944;-79
2023/08/01 06:41:30;;;;;;;5.90;5.30;;;17.90;94.10;;;;;;5041408;28;20474;-80
2023/08/01 06:43:57;;;;;;;7.20;5.20;;;17.90;94.20;;;;;;5026046;28;20452;-82
2023/08/01 06:46:24;;;;;;;6.37;5.77;;;17.90;94.40;;;;;;5046385;28;20525;-77
2023/08/01 06:48:51;;;;;;;5.43;4.80;;;17.90;94.50;;;;;;5038570;28;20493;-80
2023/08/01 06:51:18;;;;;;;8.47;6.40;;;18.10;94.10;;;;;;5014759;28;20513;-77
2023/08/01 06:53:45;;;;;;;6.47;5.87;;;18.00;94.50;;;;;;5038448;28;20671;-79
2023/08/01 06:56:12;;;;;;;7.20;5.40;;;18.00;93.80;;;;;;5035491;28;20591;-77
2023/08/01 06:58:39;;;;;;;6.57;5.67;;;17.90;94.50;;;;;;5035686;28;20517;-81
2023/08/01 07:01:06;;;;;;;5.70;5.20;;;17.90;94.50;;;;;;5037840;28;20926;-81
2023/08/01 07:03:34;;;;;;;5.40;4.90;;;18.00;94.10;;;;;;5036851;28;20428;-83
2023/08/01 07:06:00;;;;;;;6.33;5.20;;;18.00;94.00;;;;;;5038975;28;20446;-81
2023/08/01 07:08:28;;;;;;;6.33;5.40;;;18.00;94.30;;;;;;5039925;28;20481;-81
2023/08/01 07:10:54;;;;;;;7.60;5.83;;;18.00;94.50;;;;;;5046756;28;20540;-83
2023/08/01 07:13:22;;;;;;;11.80;6.00;;;18.00;94.50;;;;;;5045624;28;20452;-79
2023/08/01 07:15:49;;;;;;;6.33;5.60;;;18.10;94.50;;;;;;5048567;28;20446;-83
2023/08/01 07:18:16;;;;;;;6.80;6.20;;;18.40;94.50;;;;;;5047486;28;20452;-80
2023/08/01 07:20:43;;;;;;;6.03;5.10;;;18.20;94.50;;;;;;5039496;28;20480;-78
2023/08/01 07:23:10;;;;;;;6.57;5.83;;;18.20;93.60;;;;;;5049132;28;20421;-80
2023/08/01 07:25:37;;;;;;;6.17;5.57;;;18.30;93.90;;;;;;5033226;28;20491;-80
2023/08/01 07:28:05;;;;;;;12.63;6.03;;;18.20;94.60;;;;;;5040277;28;20442;-79
2023/08/01 07:30:32;;;;;;;7.53;5.83;;;18.30;94.30;;;;;;5042812;28;20487;-80
2023/08/01 07:32:59;;;;;;;6.83;6.23;;;18.40;94.30;;;;;;5035761;28;20515;-79
2023/08/01 07:35:26;;;;;;;7.73;5.90;;;18.40;93.40;;;;;;5035091;28;20420;-80
2023/08/01 07:37:52;;;;;;;6.63;5.50;;;18.60;93.90;;;;;;5052125;28;20469;-80
2023/08/01 07:40:19;;;;;;;6.13;5.53;;;18.80;93.70;;;;;;5055035;28;20436;-77
2023/08/01 07:42:46;;;;;;;7.43;5.77;;;19.00;93.60;;;;;;5055315;28;20500;-81
2023/08/01 07:45:14;;;;;;;6.57;5.97;;;19.30;92.90;;;;;;5036721;28;20412;-84
2023/08/01 07:47:40;;;;;;;6.07;5.57;;;19.40;91.80;;;;;;5043684;28;20470;-79
2023/08/01 07:50:08;;;;;;;6.43;5.70;;;19.50;92.20;;;;;;5036519;28;20564;-80
2023/08/01 07:52:36;;;;;;;5.97;5.37;;;19.60;91.90;;;;;;5022626;28;20765;-85
2023/08/01 07:55:06;;;;;;;5.70;4.60;;;19.70;91.90;;;;;;5018574;28;20416;-82
2023/08/01 07:57:33;;;;;;;5.10;4.60;;;19.80;91.10;;;;;;5014183;28;20649;-82
2023/08/01 08:00:00;;;;;;;6.23;5.00;;;20.00;90.50;;;;;;5016149;28;20443;-80
2023/08/01 08:02:27;;;;;;;7.50;4.40;;;20.00;91.20;;;;;;5038629;28;20447;-81
2023/08/01 08:04:54;;;;;;;5.93;5.27;;;20.00;90.50;;;;;;5038750;28;20455;-80
2023/08/01 08:07:21;;;;;;;6.90;5.80;;;20.10;90.70;;;;;;5038774;28;20521;-81
2023/08/01 08:09:48;;;;;;;5.13;4.73;;;20.20;89.40;;;;;;5019619;28;20465;-79
2023/08/01 08:12:15;;;;;;;6.70;5.10;;;20.20;90.30;;;;;;5020250;28;20479;-77
2023/08/01 08:14:45;;;;;;;5.40;4.63;;;19.80;90.60;;;;;;5040017;28;20440;-83
2023/08/01 08:17:12;;;;;;;7.40;6.13;;;19.70;91.20;;;;;;5042286;28;20475;-81
2023/08/01 08:19:39;;;;;;;5.60;5.10;;;19.60;91.00;;;;;;5026147;28;20623;-78
2023/08/01 08:22:06;;;;;;;5.60;5.10;;;19.70;90.90;;;;;;5040864;28;20438;-80
2023/08/01 08:24:33;;;;;;;5.40;4.90;;;19.90;91.30;;;;;;5027079;28;20517;-80
2023/08/01 08:27:04;;;;;;;7.10;5.00;;;19.90;91.00;;;;;;5017020;28;20428;-78
2023/08/01 08:29:32;;;;;;;7.70;5.13;;;20.10;91.10;;;;;;5041516;28;20529;-83
2023/08/01 08:31:59;;;;;;;5.40;4.80;;;19.80;90.60;;;;;;5034417;28;20461;-83
2023/08/01 08:34:27;;;;;;;6.27;5.13;;;19.70;90.40;;;;;;5032987;28;20532;-80
2023/08/01 08:36:54;;;;;;;6.30;5.40;;;19.60;90.90;;;;;;5037898;28;20444;-82
2023/08/01 08:39:21;;;;;;;5.40;4.90;;;19.60;91.00;;;;;;5045698;28;20456;-79
2023/08/01 08:41:54;;;;;;;5.13;4.50;;;19.50;91.30;;;;;;5036162;28;20460;-81
2023/08/01 08:44:32;;;;;;;7.73;5.00;;;19.40;91.60;;;;;;5022619;28;20434;-83
2023/08/01 08:47:06;;;;;;;6.90;6.17;;;19.60;92.00;;;;;;5039140;28;20445;-79
2023/08/01 08:49:33;;;;;;;6.03;5.50;;;19.70;92.70;;;;;;5028043;28;20436;-80
2023/08/01 08:52:03;;;;;;;6.47;5.87;;;19.80;92.40;;;;;;5042008;28;20504;-80
2023/08/01 08:54:31;;;;;;;8.77;5.47;;;19.60;92.60;;;;;;5037971;28;20447;-85
2023/08/01 08:56:59;;;;;;;6.57;4.50;;;19.80;92.10;;;;;;5038373;28;20888;-81
2023/08/01 08:59:30;;;;;;;7.03;5.90;;;19.80;91.70;;;;;;5042365;28;20924;-85
2023/08/01 09:01:57;;;;;;;7.83;4.83;;;19.90;91.70;;;;;;5029930;28;20441;-78
2023/08/01 09:04:24;;;;;;;8.10;6.10;;;20.20;90.60;;;;;;5039537;28;20448;-81
2023/08/01 09:06:55;;;;;;;6.10;4.60;;;20.30;90.60;;;;;;5017466;28;20488;-79
2023/08/01 09:09:26;;;;;;;5.73;5.23;;;20.50;90.70;;;;;;5034049;28;20777;-79
2023/08/01 09:11:56;;;;;;;7.77;4.93;;;20.50;90.60;;;;;;5024075;28;20501;-80
2023/08/01 09:14:23;;;;;;;5.80;5.13;;;20.60;90.90;;;;;;5040962;28;20433;-79
2023/08/01 09:16:50;;;;;;;5.57;5.07;;;20.80;90.20;;;;;;5038217;28;20502;-81
2023/08/01 09:19:19;;;;;;;8.50;4.70;;;20.70;90.20;;;;;;5021729;28;20600;-79
2023/08/01 09:21:47;;;;;;;6.03;4.60;;;20.70;89.70;;;;;;5045829;28;20469;-80
2023/08/01 09:24:17;;;;;;;12.47;4.40;;;20.60;90.40;;;;;;5045446;28;20443;-78
2023/08/01 09:26:47;;;;;;;5.47;4.93;;;20.30;88.90;;;;;;5042814;28;20416;-79
2023/08/01 09:29:17;;;;;;;8.93;5.37;;;20.20;90.50;;;;;;5043633;28;20617;-78
2023/08/01 09:31:49;;;;;;;4.57;4.20;;;20.00;90.00;;;;;;5045305;28;20455;-81
2023/08/01 09:34:23;;;;;;;5.13;4.63;;;19.90;90.10;;;;;;5040402;28;20798;-83
2023/08/01 09:36:51;;;;;;;5.40;4.70;;;19.70;91.20;;;;;;5025653;28;20441;-80
2023/08/01 09:39:20;;;;;;;12.23;6.40;;;19.60;90.70;;;;;;5021532;28;20416;-80
2023/08/01 09:41:58;;;;;;;5.30;4.67;;;19.60;91.40;;;;;;5042080;28;20487;-78
2023/08/01 09:44:27;;;;;;;5.37;4.70;;;19.60;90.90;;;;;;5041348;28;21157;-82
2023/08/01 09:46:58;;;;;;;4.73;4.13;;;19.70;91.50;;;;;;5042417;28;20453;-80
2023/08/01 09:49:32;;;;;;;5.10;4.60;;;19.60;90.90;;;;;;5023935;28;20484;-82
2023/08/01 09:52:01;;;;;;;5.10;4.60;;;19.80;90.90;;;;;;5035496;28;20802;-78
2023/08/01 09:54:28;;;;;;;6.03;5.47;;;20.00;90.50;;;;;;5025755;28;20579;-81
2023/08/01 09:56:56;;;;;;;7.37;5.80;;;20.30;91.50;;;;;;5029907;28;20425;-81
2023/08/01 09:59:25;;;;;;;4.87;4.47;;;20.60;91.00;;;;;;5042919;28;20435;-84
2023/08/01 10:01:54;;;;;;;5.53;5.03;;;20.80;89.60;;;;;;5025208;28;20438;-79
2023/08/01 10:04:30;;;;;;;7.27;4.43;;;20.90;89.90;;;;;;5041317;28;20444;-82
2023/08/01 10:07:00;;;;;;;4.50;4.20;;;21.00;88.30;;;;;;5042706;28;20728;-79
2023/08/01 10:09:28;;;;;;;6.40;4.40;;;21.10;87.70;;;;;;5044834;28;20443;-84
2023/08/01 10:11:58;;;;;;;5.27;4.77;;;21.20;87.90;;;;;;5044838;28;20488;-83
2023/08/01 10:14:26;;;;;;;4.70;4.30;;;21.30;87.60;;;;;;5043817;28;20462;-82
2023/08/01 10:16:54;;;;;;;5.10;4.70;;;21.40;84.40;;;;;;5033329;28;20479;-82
2023/08/01 10:19:22;;;;;;;8.53;5.30;;;21.60;85.10;;;;;;5032123;28;20481;-81
2023/08/01 10:21:50;;;;;;;6.37;4.40;;;21.70;85.10;;;;;;5039066;28;20442;-80
2023/08/01 10:24:22;;;;;;;5.80;5.20;;;21.90;84.60;;;;;;5039217;28;20443;-81
2023/08/01 10:26:50;;;;;;;5.40;4.90;;;21.90;82.50;;;;;;5042593;28;20780;-82
2023/08/01 10:29:18;;;;;;;5.80;5.20;;;22.10;82.20;;;;;;5039997;28;20446;-81
2023/08/01 10:31:54;;;;;;;5.73;5.27;;;22.10;80.20;;;;;;5040529;28;20466;-86
2023/08/01 10:34:22;;;;;;;5.60;5.10;;;21.80;82.30;;;;;;5028162;28;20775;-85
2023/08/01 10:36:59;;;;;;;6.43;5.70;;;21.60;82.70;;;;;;5027270;28;20438;-81
2023/08/01 10:39:28;;;;;;;6.90;5.70;;;21.50;84.80;;;;;;5040320;28;20450;-84
2023/08/01 10:42:03;;;;;;;6.93;4.63;;;21.40;86.20;;;;;;5025708;28;20504;-81
2023/08/01 10:44:33;;;;;;;6.00;5.43;;;21.60;85.50;;;;;;5040648;28;20416;-81
2023/08/01 10:47:04;;;;;;;7.17;4.80;;;21.60;84.90;;;;;;5021718;28;20440;-80
2023/08/01 10:49:45;;;;;;;7.67;6.03;;;21.70;85.10;;;;;;5050061;28;20412;-81
2023/08/01 10:52:27;;;;;;;8.30;5.90;;;21.40;83.60;;;;;;5027996;28;20455;-80
2023/08/01 10:55:00;;;;;;;5.80;5.30;;;21.40;86.90;;;;;;5037702;28;20832;-84
2023/08/01 10:57:35;;;;;;;5.03;4.53;;;21.10;85.20;;;;;;5042812;28;20495;-83
2023/08/01 11:00:09;;;;;;;5.07;4.63;;;20.90;84.20;;;;;;5040419;28;20446;-82
2023/08/01 11:02:36;;;;;;;4.70;4.30;;;20.80;85.10;;;;;;5038843;28;20444;-82
2023/08/01 11:05:07;;;;;;;8.63;4.73;;;20.60;84.90;;;;;;5048219;28;20400;-80
2023/08/01 11:07:35;;;;;;;5.43;4.93;;;20.60;86.60;;;;;;5054457;28;20413;-82
2023/08/01 11:10:09;;;;;;;5.10;3.43;;;20.60;86.00;;;;;;5038225;28;20421;-80
2023/08/01 11:12:43;;;;;;;9.63;5.10;;;20.40;87.00;;;;;;5036463;28;20484;-82
2023/08/01 11:15:11;;;;;;;6.33;5.00;;;20.20;86.30;;;;;;5039470;28;20454;-80
2023/08/01 11:17:49;;;;;;;4.80;4.30;;;20.40;86.70;;;;;;5039932;28;20506;-83
2023/08/01 11:20:21;;;;;;;5.00;4.10;;;20.40;85.60;;;;;;5041234;28;20433;-79
2023/08/01 11:22:57;;;;;;;4.70;4.30;;;20.40;86.50;;;;;;5042047;28;20438;-81
2023/08/01 11:25:37;;;;;;;4.17;3.67;;;20.40;84.70;;;;;;5039176;28;20459;-87
2023/08/01 11:28:10;;;;;;;4.87;3.60;;;20.40;87.80;;;;;;5022590;28;20437;-83
2023/08/01 11:30:38;;;;;;;3.97;3.63;;;20.50;85.50;;;;;;5034934;28;20436;-82
2023/08/01 11:33:23;;;;;;;3.83;3.43;;;20.80;84.20;;;;;;5023479;28;21100;-83
2023/08/01 11:35:58;;;;;;;4.63;4.10;;;21.10;83.20;;;;;;5023185;28;20420;-77
2023/08/01 11:38:32;;;;;;;3.90;3.50;;;21.40;79.70;;;;;;5040265;28;20440;-82
2023/08/01 11:41:03;;;;;;;3.83;3.40;;;22.00;79.70;;;;;;5028224;28;20469;-81
2023/08/01 11:43:40;;;;;;;6.20;3.80;;;22.00;78.20;;;;;;5021433;28;20412;-82
2023/08/01 11:46:08;;;;;;;5.27;3.33;;;22.30;78.60;;;;;;5039787;28;20457;-84
2023/08/01 11:48:36;;;;;;;3.77;3.47;;;22.50;75.20;;;;;;5038291;28;20421;-80
2023/08/01 11:51:05;;;;;;;4.77;4.37;;;23.10;76.00;;;;;;5035759;28;20809;-85
2023/08/01 11:53:38;;;;;;;5.63;4.97;;;23.10;74.40;;;;;;5050167;28;20445;-80
2023/08/01 11:56:07;;;;;;;4.83;3.73;;;23.40;74.50;;;;;;5031561;28;20462;-83
2023/08/01 11:58:41;;;;;;;5.97;4.10;;;23.20;76.50;;;;;;5022307;28;20555;-81
2023/08/01 12:01:13;;;;;;;4.13;3.43;;;23.30;73.80;;;;;;5038648;28;20447;-81
2023/08/01 12:03:45;;;;;;;9.37;4.97;;;23.60;74.10;;;;;;5041373;28;20543;-83
2023/08/01 12:06:23;;;;;;;4.03;3.63;;;23.80;73.00;;;;;;5032803;28;20505;-84
2023/08/01 12:08:51;;;;;;;3.90;3.60;;;24.00;72.40;;;;;;5038547;28;20490;-82
2023/08/01 12:11:26;;;;;;;5.90;3.60;;;24.10;70.80;;;;;;5035973;28;20503;-84
2023/08/01 12:14:11;;;;;;;4.57;3.30;;;24.00;69.10;;;;;;5039420;28;20411;-81
2023/08/01 12:16:44;;;;;;;10.23;4.17;;;24.00;68.80;;;;;;5039151;28;20432;-82
2023/08/01 12:19:17;;;;;;;3.70;3.27;;;24.10;69.70;;;;;;5036119;28;20413;-81
2023/08/01 12:21:45;;;;;;;4.23;3.73;;;24.40;67.90;;;;;;5034268;28;20788;-81
2023/08/01 12:24:12;;;;;;;4.33;3.27;;;24.60;67.10;;;;;;5039647;28;20952;-80
2023/08/01 12:26:39;;;;;;;3.40;3.07;;;24.60;68.40;;;;;;5022065;28;20449;-80
2023/08/01 12:29:08;;;;;;;4.47;3.73;;;24.40;66.20;;;;;;5040258;28;20445;-83
2023/08/01 12:31:35;;;;;;;3.73;3.20;;;24.40;67.20;;;;;;5038724;28;20496;-84
2023/08/01 12:34:02;;;;;;;3.70;3.40;;;24.40;66.10;;;;;;5040715;28;20448;-83
2023/08/01 12:36:29;;;;;;;4.10;3.03;;;24.20;65.40;;;;;;5034022;28;21079;-82
2023/08/01 12:38:56;;;;;;;3.10;2.90;;;24.40;65.70;;;;;;5036557;28;20429;-80
2023/08/01 12:41:23;;;;;;;3.63;3.10;;;24.60;64.10;;;;;;5036903;28;20431;-81
2023/08/01 12:43:52;;;;;;;3.80;2.90;;;24.70;66.10;;;;;;5040056;28;20412;-81
2023/08/01 12:46:21;;;;;;;4.37;4.00;;;24.90;64.40;;;;;;5039769;28;20423;-84
2023/08/01 12:48:48;;;;;;;4.33;3.23;;;25.20;64.30;;;;;;5039123;28;20424;-83
2023/08/01 12:51:15;;;;;;;3.30;3.00;;;25.10;62.60;;;;;;5018697;28;20514;-81